Butler, Indiana
Current Conditions -  °F | °C
As of 11:15 PM on Wednesday 26 Nov 2014 (Local Time) from KGWB Reporting Station
Overcast Overcast  
Wind Chill: 23°   Ceiling: 2900
Heat Index: 30°   Visibility: 10mi
Dew Point: 23°   Wind: 7mph
Humidity: 75%   Direction: 320°NW
Pressure: 30.11"   Gusts: NA
Location:  41.43°N, 84.87°W
Report Text: KGWB 270415Z AUTO 32006KT 10SM OVC029 M01/M05 A3011 RMK AO2
Loading
Personal Weather Stations






























Interactive Weather Map New forecast layout! Learn more

10-Day Weather Forecast

Advertisements
Track Severe Weather on mobile